Time;durP1;ratioP1;P1;durP2;ratioP2;P2;SDS_P1;SDS_P2;PMS_P1;PMS_P2;Temp;Humidity;BMP_temperature;BMP_pressure;BME280_temperature;BME280_humidity;BME280_pressure;Samples;Min_cycle;Max_cycle;Signal;HPM_P1;HPM_P2
2023/03/25 16:19:50;;;;;;;;;;;;;;;24.26;39.33;98004.97;5113400;27;20006;-60
2023/03/25 16:23:38;;;;;;;5.25;1.63;;;;;;;23.60;39.92;98001.25;5078252;27;20511;-64
2023/03/25 16:26:34;;;;;;;6.82;1.75;;;;;;;23.05;39.08;97996.13;5068472;28;20051;-69
2023/03/25 16:29:22;;;;;;;4.68;1.13;;;;;;;22.88;40.43;98008.03;5070136;28;20666;-71
2023/03/25 16:32:17;;;;;;;10.32;1.27;;;;;;;22.83;39.90;98015.03;5070035;28;20867;-68
2023/03/25 16:35:04;;;;;;;25.10;2.30;;;;;;;22.81;40.48;98007.22;5069672;28;20045;-68
2023/03/25 16:37:51;;;;;;;16.85;1.90;;;;;;;22.80;39.98;98007.44;5062679;28;20047;-61
2023/03/25 16:40:42;;;;;;;73.75;5.13;;;;;;;22.81;41.43;98019.75;5080003;28;20135;-72
2023/03/25 16:43:30;;;;;;;55.80;4.90;;;;;;;22.98;40.45;98017.50;5054523;28;20068;-63
2023/03/25 16:46:17;;;;;;;28.77;3.10;;;;;;;22.96;41.26;98024.91;5069358;28;20045;-69
2023/03/25 16:49:03;;;;;;;33.38;3.50;;;;;;;22.82;39.55;98022.22;5070694;28;20044;-74
2023/03/25 16:51:50;;;;;;;42.45;4.15;;;;;;;22.67;39.55;98024.25;5061203;28;20061;-74
2023/03/25 16:54:56;;;;;;;42.13;5.70;;;;;;;22.61;40.19;98028.53;5064313;28;20088;-74
2023/03/25 16:57:41;;;;;;;41.50;4.13;;;;;;;22.57;39.93;98028.06;5060928;28;20491;-76
2023/03/25 17:00:38;;;;;;;30.45;3.58;;;;;;;22.56;40.10;98037.13;5065505;28;20544;-75
2023/03/25 17:04:07;;;;;;;19.38;2.60;;;;;;;22.46;39.67;98042.00;5048460;28;20059;-74
2023/03/25 17:06:59;;;;;;;15.85;2.10;;;;;;;22.43;38.86;98045.06;5032622;28;20052;-75
2023/03/25 17:09:49;;;;;;;12.75;1.95;;;;;;;22.44;39.16;98050.19;5061954;28;20053;-77
2023/03/25 17:12:34;;;;;;;14.20;1.58;;;;;;;;;;5068506;28;20051;-74
2023/03/25 17:15:19;;;;;;;9.40;1.60;;;;;;;22.46;39.11;98058.84;5067026;28;20044;-74
2023/03/25 17:18:12;;;;;;;11.68;1.73;;;;;;;22.42;39.37;98073.63;5067684;28;20210;-73
2023/03/25 17:21:01;;;;;;;7.50;1.15;;;;;;;22.30;38.55;98068.00;5059575;28;20491;-75
2023/03/25 17:23:46;;;;;;;7.10;1.27;;;;;;;22.30;38.31;98091.19;5067895;28;20043;-75
2023/03/25 17:26:54;;;;;;;10.45;1.38;;;;;;;22.00;37.72;98111.75;5067780;28;20115;-71
2023/03/25 17:29:55;;;;;;;3.55;0.77;;;;;;;20.91;37.86;98133.09;5068343;28;20055;-75
2023/03/25 17:32:42;;;;;;;3.22;0.45;;;;;;;20.58;36.69;98150.31;5067383;28;20088;-74
2023/03/25 17:35:30;;;;;;;0.98;0.30;;;;;;;19.56;38.60;98156.81;5054513;28;20051;-76
2023/03/25 17:38:28;;;;;;;3.67;0.43;;;;;;;20.16;39.03;98163.25;5054577;28;20045;-70
2023/03/25 17:41:17;;;;;;;1.10;0.30;;;;;;;20.41;38.08;98176.31;5053873;28;20037;-76
2023/03/25 17:44:02;;;;;;;2.05;0.40;;;;;;;20.47;38.37;98188.03;5054579;28;20481;-73
2023/03/25 17:46:47;;;;;;;1.77;0.20;;;;;;;20.62;38.21;98202.16;5042751;28;20543;-74
2023/03/25 17:49:32;;;;;;;2.60;0.10;;;;;;;20.37;38.32;98218.41;5054616;28;20049;-72
2023/03/25 17:52:19;;;;;;;0.73;0.20;;;;;;;20.56;38.00;98232.97;5053129;28;20500;-74
2023/03/25 17:55:03;;;;;;;2.40;0.43;;;;;;;20.63;38.06;98226.94;5053285;28;20065;-75
2023/03/25 17:57:48;;;;;;;0.63;0.10;;;;;;;20.56;38.21;98219.69;5054572;28;20095;-73
2023/03/25 18:00:34;;;;;;;1.13;0.43;;;;;;;20.37;38.66;98229.03;5054396;28;20065;-73
2023/03/25 18:03:21;;;;;;;8.38;0.55;;;;;;;20.65;39.17;98239.06;5066865;28;20041;-75
2023/03/25 18:06:06;;;;;;;4.03;0.38;;;;;;;21.23;38.60;98231.38;5043525;28;20064;-73
2023/03/25 18:08:51;;;;;;;4.82;0.52;;;;;;;21.57;38.45;98221.91;5053586;28;20040;-68
2023/03/25 18:11:36;;;;;;;2.40;0.70;;;;;;;21.87;38.36;98202.31;5053562;28;20439;-72
2023/03/25 18:14:22;;;;;;;13.15;0.60;;;;;;;22.08;38.88;98203.28;5054135;28;20124;-74
2023/03/25 18:17:11;;;;;;;10.23;0.90;;;;;;;22.26;39.37;98210.81;5050849;28;20477;-67
2023/03/25 18:19:56;;;;;;;4.47;0.40;;;;;;;22.54;38.98;98198.44;5052339;28;20040;-68
2023/03/25 18:48:22;;;;;;;2.38;0.10;;;;;;;22.75;40.80;98222.38;5077518;27;20381;-63
2023/03/25 18:51:12;;;;;;;1.20;0.60;;;;;;;22.75;40.13;98225.06;5067679;28;20407;-63
2023/03/25 18:53:57;;;;;;;3.33;0.20;;;;;;;22.76;40.20;98233.91;5055468;28;20063;-62
2023/03/25 18:56:42;;;;;;;2.08;0.20;;;;;;;22.79;40.24;98230.00;5066847;28;20048;-65
